Terminal Aerodrome Forecast
Issued by NWS

Home | Current Version | Previous Version | Graphics & Text | Print | Product List | Glossary Off
Versions: 1 2 3 4 5 6 7 8 9 10 11 12 13 14 15 16

000
FTUS45 KGGW 240520
TAFOLF
TAF
KOLF 240520Z 2406/2506 31006KT P6SM FEW080
     FM241700 32011KT P6SM FEW110
     FM250200 01008KT P6SM FEW080=

USA.gov is the U.S. government's official web portal to all federal, state and local government web resources and services.